Time;durP1;ratioP1;P1;durP2;ratioP2;P2;SDS_P1;SDS_P2;PMS_P1;PMS_P2;Temp;Humidity;BMP_temperature;BMP_pressure;BME280_temperature;BME280_humidity;BME280_pressure;Samples;Min_cycle;Max_cycle;Signal;HPM_P1;HPM_P2
2022/01/23 00:00:20;;;;;;;0.10;0.10;;;;;;;;;;4829287;29;20052;-86
2022/01/23 00:02:46;;;;;;;0.10;0.10;;;;;;;;;;4844420;29;20127;-86
2022/01/23 00:05:12;;;;;;;0.10;0.10;;;;;;;;;;4829022;29;20516;-86
2022/01/23 00:07:40;;;;;;;0.10;0.10;;;;;;;;;;4829191;29;20081;-86
2022/01/23 00:10:06;;;;;;;0.10;0.10;;;;;;;;;;4844330;29;20105;-86
2022/01/23 00:12:39;;;;;;;0.10;0.10;;;;;;;;;;4829071;29;20073;-86
2022/01/23 00:17:49;;;;;;;0.10;0.10;;;;;;;;;;4831274;29;20132;-86
2022/01/23 00:20:15;;;;;;;0.10;0.10;;;;;;;;;;4829039;29;20128;-87
2022/01/23 00:22:58;;;;;;;0.10;0.10;;;;;;;;;;4829043;29;20048;-87
2022/01/23 00:30:55;;;;;;;0.10;0.10;;;;;;;;;;4843853;29;20053;-86
2022/01/23 00:33:22;;;;;;;0.10;0.10;;;;;;;;;;4828675;29;20103;-86
2022/01/23 00:35:48;;;;;;;0.10;0.10;;;;;;;;;;4843887;29;20045;-86
2022/01/23 00:38:14;;;;;;;0.10;0.10;;;;;;;;;;4826400;29;20428;-87
2022/01/23 00:40:40;;;;;;;0.10;0.10;;;;;;;;;;4843732;29;20054;-87
2022/01/23 00:43:14;;;;;;;0.10;0.10;;;;;;;;;;4843571;29;20081;-87
2022/01/23 00:45:50;;;;;;;0.10;0.10;;;;;;;;;;4828566;29;20052;-87
2022/01/23 00:48:18;;;;;;;0.10;0.10;;;;;;;;;;4843816;29;20046;-86
2022/01/23 00:50:44;;;;;;;0.10;0.10;;;;;;;;;;4828426;29;20132;-87
2022/01/23 00:53:11;;;;;;;0.10;0.10;;;;;;;;;;4828328;29;20053;-86
2022/01/23 00:55:38;;;;;;;0.10;0.10;;;;;;;;;;4843461;29;20355;-86
2022/01/23 00:58:04;;;;;;;0.10;0.10;;;;;;;;;;4828695;29;20060;-86
2022/01/23 01:00:30;;;;;;;0.10;0.10;;;;;;;;;;4828487;29;20406;-87
2022/01/23 01:02:58;;;;;;;0.10;0.10;;;;;;;;;;4843459;29;20138;-87
2022/01/23 01:05:26;;;;;;;0.10;0.10;;;;;;;;;;4828308;29;20049;-87
2022/01/23 01:07:52;;;;;;;0.10;0.10;;;;;;;;;;4828607;29;20519;-87
2022/01/23 01:10:24;;;;;;;0.10;0.10;;;;;;;;;;4828258;29;20049;-87
2022/01/23 01:12:55;;;;;;;0.10;0.10;;;;;;;;;;4843353;29;20053;-86
2022/01/23 01:31:44;;;;;;;0.10;0.10;;;;;;;;;;4842933;29;20576;-86
2022/01/23 01:34:20;;;;;;;0.00;0.00;;;;;;;;;;4828085;29;20154;-86
2022/01/23 01:36:51;;;;;;;0.10;0.10;;;;;;;;;;4828044;29;20370;-86
2022/01/23 01:39:18;;;;;;;0.10;0.10;;;;;;;;;;4843702;29;20062;-87
2022/01/23 01:41:44;;;;;;;0.10;0.10;;;;;;;;;;4827874;29;20053;-87
2022/01/23 01:44:10;;;;;;;0.10;0.10;;;;;;;;;;4827888;29;20570;-87
2022/01/23 01:46:36;;;;;;;0.10;0.10;;;;;;;;;;4827836;29;20053;-87
2022/01/23 01:49:02;;;;;;;0.10;0.10;;;;;;;;;;4827904;29;20121;-87
2022/01/23 01:51:31;;;;;;;0.10;0.10;;;;;;;;;;4827773;29;20192;-87
2022/01/23 01:54:04;;;;;;;0.10;0.10;;;;;;;;;;4827602;29;20052;-86
2022/01/23 01:56:47;;;;;;;0.10;0.10;;;;;;;;;;4842889;29;20045;-86
2022/01/23 01:59:33;;;;;;;0.10;0.10;;;;;;;;;;4843198;29;20042;-88
2022/01/23 02:09:55;;;;;;;0.10;0.10;;;;;;;;;;4842689;29;20058;-87
2022/01/23 02:17:54;;;;;;;0.10;0.10;;;;;;;;;;4842764;29;20045;-87
2022/01/23 02:55:43;;;;;;;0.10;0.10;;;;;;;;;;4845693;29;20052;-87
2022/01/23 02:58:12;;;;;;;0.10;0.10;;;;;;;;;;4830770;29;20057;-86
2022/01/23 03:00:48;;;;;;;0.10;0.10;;;;;;;;;;4830570;29;20092;-86
2022/01/23 03:03:21;;;;;;;0.10;0.10;;;;;;;;;;4830035;29;20046;-87
2022/01/23 03:06:09;;;;;;;0.10;0.10;;;;;;;;;;4830076;29;20128;-87
2022/01/23 03:08:59;;;;;;;0.10;0.10;;;;;;;;;;4832789;29;20513;-87
2022/01/23 03:14:21;;;;;;;0.10;0.10;;;;;;;;;;4845437;29;20049;-87
2022/01/23 03:32:50;;;;;;;0.10;0.10;;;;;;;;;;4845044;29;20312;-86
2022/01/23 03:35:17;;;;;;;0.10;0.10;;;;;;;;;;4829704;29;20042;-86
2022/01/23 03:37:43;;;;;;;0.10;0.10;;;;;;;;;;4830001;29;20517;-87
2022/01/23 03:40:09;;;;;;;0.10;0.10;;;;;;;;;;4829691;29;20053;-87
2022/01/23 03:42:38;;;;;;;0.10;0.10;;;;;;;;;;4829585;29;20224;-87
2022/01/23 03:47:38;;;;;;;0.10;0.10;;;;;;;;;;4844559;29;20517;-87
2022/01/23 03:50:05;;;;;;;0.10;0.10;;;;;;;;;;4828932;29;20115;-86
2022/01/23 03:52:31;;;;;;;0.10;0.10;;;;;;;;;;4844847;29;20491;-87
2022/01/23 03:54:57;;;;;;;0.10;0.10;;;;;;;;;;4829323;29;20086;-87
2022/01/23 03:57:23;;;;;;;0.10;0.10;;;;;;;;;;4844565;29;20090;-87
2022/01/23 03:59:49;;;;;;;0.10;0.10;;;;;;;;;;4829170;29;20049;-87
2022/01/23 04:02:16;;;;;;;0.10;0.10;;;;;;;;;;4829406;29;20470;-87
2022/01/23 04:04:42;;;;;;;0.10;0.10;;;;;;;;;;4844315;29;20088;-87
2022/01/23 04:07:09;;;;;;;0.10;0.10;;;;;;;;;;4844312;29;20088;-88
2022/01/23 04:09:36;;;;;;;0.10;0.10;;;;;;;;;;4844317;29;20045;-87
2022/01/23 04:12:04;;;;;;;0.10;0.10;;;;;;;;;;4844207;29;20045;-87
2022/01/23 04:14:31;;;;;;;0.03;0.03;;;;;;;;;;4829012;29;20533;-87
2022/01/23 04:19:54;;;;;;;0.10;0.10;;;;;;;;;;4843999;29;20134;-87
2022/01/23 04:33:41;;;;;;;0.10;0.10;;;;;;;;;;4831135;29;20447;-86
2022/01/23 05:00:54;;;;;;;0.10;0.10;;;;;;;;;;4830250;29;20049;-87
2022/01/23 05:06:07;;;;;;;0.10;0.10;;;;;;;;;;4830555;29;20049;-87
2022/01/23 05:08:36;;;;;;;0.10;0.10;;;;;;;;;;4843631;29;20052;-87
2022/01/23 05:11:02;;;;;;;0.10;0.10;;;;;;;;;;4843228;29;20125;-87
2022/01/23 05:13:29;;;;;;;0.10;0.10;;;;;;;;;;4843124;29;20041;-87
2022/01/23 05:15:57;;;;;;;0.10;0.10;;;;;;;;;;4828580;29;20048;-86
2022/01/23 05:18:24;;;;;;;0.10;0.10;;;;;;;;;;4828100;29;20064;-86
2022/01/23 05:20:58;;;;;;;0.10;0.10;;;;;;;;;;4828388;29;20050;-86
2022/01/23 05:23:24;;;;;;;0.10;0.10;;;;;;;;;;4828040;29;20482;-86
2022/01/23 05:25:50;;;;;;;0.10;0.10;;;;;;;;;;4828448;29;20046;-86
2022/01/23 05:28:16;;;;;;;0.10;0.10;;;;;;;;;;4843231;29;20045;-86
2022/01/23 05:30:43;;;;;;;0.10;0.10;;;;;;;;;;4828233;29;20038;-86
2022/01/23 05:33:09;;;;;;;0.10;0.10;;;;;;;;;;4843057;29;20046;-87
2022/01/23 05:35:35;;;;;;;0.10;0.10;;;;;;;;;;4828420;29;20374;-87
2022/01/23 05:38:01;;;;;;;0.10;0.10;;;;;;;;;;4827858;29;20057;-88
2022/01/23 05:40:29;;;;;;;0.10;0.10;;;;;;;;;;4827927;29;20470;-88
2022/01/23 05:42:55;;;;;;;0.10;0.10;;;;;;;;;;4842848;29;20045;-87
2022/01/23 05:45:21;;;;;;;0.10;0.10;;;;;;;;;;4828320;29;20463;-88
2022/01/23 05:47:47;;;;;;;0.10;0.10;;;;;;;;;;4827941;29;20193;-88
2022/01/23 05:50:13;;;;;;;0.10;0.10;;;;;;;;;;4827883;29;20070;-88
2022/01/23 05:52:40;;;;;;;0.10;0.10;;;;;;;;;;4827792;29;20485;-88
2022/01/23 05:55:06;;;;;;;0.10;0.10;;;;;;;;;;4842802;29;20494;-88
2022/01/23 05:57:32;;;;;;;0.10;0.10;;;;;;;;;;4842699;29;20106;-87
2022/01/23 05:59:58;;;;;;;0.10;0.10;;;;;;;;;;4827891;29;20045;-87
2022/01/23 06:02:24;;;;;;;0.10;0.10;;;;;;;;;;4842826;29;20054;-87
2022/01/23 06:04:50;;;;;;;0.10;0.10;;;;;;;;;;4842785;29;20110;-87
2022/01/23 06:07:16;;;;;;;0.10;0.10;;;;;;;;;;4827714;29;20045;-87
2022/01/23 06:09:42;;;;;;;0.10;0.10;;;;;;;;;;4827565;29;20119;-88
2022/01/23 06:12:08;;;;;;;0.10;0.10;;;;;;;;;;4827932;29;20041;-87
2022/01/23 06:14:34;;;;;;;0.10;0.10;;;;;;;;;;4846562;29;20132;-87
2022/01/23 06:17:00;;;;;;;0.10;0.10;;;;;;;;;;4831232;29;20132;-86
2022/01/23 06:19:26;;;;;;;0.10;0.10;;;;;;;;;;4831286;29;20049;-88
2022/01/23 06:21:52;;;;;;;0.10;0.10;;;;;;;;;;4846212;29;20049;-85
2022/01/23 06:24:26;;;;;;;0.10;0.10;;;;;;;;;;4830759;29;20056;-86
2022/01/23 06:26:53;;;;;;;0.10;0.10;;;;;;;;;;4830867;29;20049;-86
2022/01/23 06:29:19;;;;;;;0.10;0.10;;;;;;;;;;4846167;29;20102;-91
2022/01/23 06:31:46;;;;;;;0.10;0.10;;;;;;;;;;4846038;29;20195;-86
2022/01/23 06:34:12;;;;;;;0.52;0.20;;;;;;;;;;4846008;29;20084;-86
2022/01/23 06:36:38;;;;;;;0.10;0.10;;;;;;;;;;4830967;29;20037;-86
2022/01/23 06:39:04;;;;;;;0.10;0.10;;;;;;;;;;4830535;29;20467;-86
2022/01/23 06:41:31;;;;;;;0.10;0.10;;;;;;;;;;4830595;29;20050;-87
2022/01/23 06:43:56;;;;;;;0.10;0.10;;;;;;;;;;4830327;29;20153;-87
2022/01/23 06:46:22;;;;;;;0.10;0.10;;;;;;;;;;4845854;29;20045;-87
2022/01/23 06:48:48;;;;;;;0.10;0.10;;;;;;;;;;4830520;29;20049;-87
2022/01/23 06:51:14;;;;;;;0.10;0.10;;;;;;;;;;4830248;29;20041;-87
2022/01/23 06:53:40;;;;;;;0.10;0.10;;;;;;;;;;4830549;29;20140;-87
2022/01/23 06:56:06;;;;;;;0.10;0.10;;;;;;;;;;4830108;29;20490;-86
2022/01/23 06:58:32;;;;;;;0.10;0.10;;;;;;;;;;4830429;29;20048;-87
2022/01/23 07:00:58;;;;;;;0.10;0.10;;;;;;;;;;4830285;29;20546;-85
2022/01/23 07:03:24;;;;;;;0.10;0.10;;;;;;;;;;4845550;29;20056;-85
2022/01/23 07:05:50;;;;;;;0.10;0.10;;;;;;;;;;4845336;29;20413;-85
2022/01/23 07:08:16;;;;;;;0.00;0.00;;;;;;;;;;4845321;29;20194;-83
2022/01/23 07:10:42;;;;;;;0.10;0.10;;;;;;;;;;4830188;29;20061;-84
2022/01/23 07:13:08;;;;;;;0.10;0.10;;;;;;;;;;4830049;29;20045;-85
2022/01/23 07:15:34;;;;;;;0.10;0.10;;;;;;;;;;4830051;29;20037;-85
2022/01/23 07:18:00;;;;;;;0.10;0.10;;;;;;;;;;4830048;29;20049;-85
2022/01/23 07:20:26;;;;;;;0.10;0.10;;;;;;;;;;4845765;29;20095;-84
2022/01/23 07:22:52;;;;;;;0.10;0.10;;;;;;;;;;4830107;29;20835;-85
2022/01/23 07:25:18;;;;;;;0.10;0.10;;;;;;;;;;4844814;29;20521;-87
2022/01/23 07:27:49;;;;;;;0.10;0.10;;;;;;;;;;4830062;29;20041;-85
2022/01/23 07:30:33;;;;;;;0.10;0.10;;;;;;;;;;4845008;29;20089;-86
2022/01/23 07:32:59;;;;;;;0.10;0.10;;;;;;;;;;4844984;29;20065;-86
2022/01/23 07:35:25;;;;;;;0.10;0.10;;;;;;;;;;4829986;29;20125;-85
2022/01/23 07:37:51;;;;;;;0.10;0.10;;;;;;;;;;4844878;29;20066;-86
2022/01/23 07:40:17;;;;;;;0.10;0.10;;;;;;;;;;4829816;29;20489;-86
2022/01/23 07:42:43;;;;;;;0.10;0.10;;;;;;;;;;4829786;29;20041;-87
2022/01/23 07:45:09;;;;;;;0.10;0.10;;;;;;;;;;4829432;29;20068;-87
2022/01/23 07:47:35;;;;;;;0.10;0.10;;;;;;;;;;4829381;29;20042;-88
2022/01/23 07:50:03;;;;;;;0.10;0.10;;;;;;;;;;4828330;29;20302;-88
2022/01/23 07:52:30;;;;;;;0.10;0.10;;;;;;;;;;4829127;29;20512;-88
2022/01/23 07:54:56;;;;;;;0.10;0.10;;;;;;;;;;4844832;29;20097;-88
2022/01/23 07:57:22;;;;;;;0.10;0.10;;;;;;;;;;4829495;29;20237;-88
2022/01/23 07:59:48;;;;;;;0.10;0.10;;;;;;;;;;4829490;29;20564;-88
2022/01/23 08:02:14;;;;;;;0.10;0.10;;;;;;;;;;4829133;29;20063;-88
2022/01/23 08:04:40;;;;;;;0.10;0.10;;;;;;;;;;4844681;29;20397;-88
2022/01/23 08:07:12;;;;;;;0.10;0.10;;;;;;;;;;4829432;29;20048;-88
2022/01/23 08:09:38;;;;;;;0.10;0.10;;;;;;;;;;4830062;29;20517;-88
2022/01/23 08:12:04;;;;;;;0.10;0.10;;;;;;;;;;4829177;29;20049;-88
2022/01/23 08:14:30;;;;;;;0.10;0.10;;;;;;;;;;4829318;29;20038;-88
2022/01/23 08:16:56;;;;;;;0.10;0.10;;;;;;;;;;4829182;29;20052;-88
2022/01/23 08:19:22;;;;;;;0.10;0.10;;;;;;;;;;4829068;29;20041;-88
2022/01/23 08:21:48;;;;;;;0.10;0.10;;;;;;;;;;4828950;29;20049;-88
2022/01/23 08:24:14;;;;;;;0.10;0.10;;;;;;;;;;4828904;29;20045;-88
2022/01/23 08:26:40;;;;;;;0.10;0.10;;;;;;;;;;4829401;29;20045;-88
2022/01/23 08:29:07;;;;;;;0.10;0.10;;;;;;;;;;4828818;29;20341;-88
2022/01/23 08:31:34;;;;;;;0.10;0.10;;;;;;;;;;4828947;29;20108;-88
2022/01/23 08:34:00;;;;;;;0.10;0.10;;;;;;;;;;4829267;29;20526;-88
2022/01/23 08:36:26;;;;;;;0.10;0.10;;;;;;;;;;4828115;29;20117;-88
2022/01/23 08:38:52;;;;;;;0.10;0.10;;;;;;;;;;4828866;29;20141;-88
2022/01/23 08:43:48;;;;;;;0.10;0.10;;;;;;;;;;4843618;29;20540;-87
2022/01/23 08:46:14;;;;;;;0.10;0.10;;;;;;;;;;4828705;29;20041;-88
2022/01/23 08:48:41;;;;;;;0.10;0.10;;;;;;;;;;4843989;29;20140;-88
2022/01/23 08:51:07;;;;;;;0.10;0.10;;;;;;;;;;4843582;29;20045;-88
2022/01/23 08:53:33;;;;;;;0.10;0.10;;;;;;;;;;4843648;29;20045;-88
2022/01/23 08:55:59;;;;;;;0.10;0.10;;;;;;;;;;4828797;29;20100;-88
2022/01/23 08:58:26;;;;;;;0.10;0.10;;;;;;;;;;4828412;29;20528;-88
2022/01/23 09:00:51;;;;;;;0.10;0.10;;;;;;;;;;4828710;29;20045;-88
2022/01/23 09:03:17;;;;;;;0.10;0.10;;;;;;;;;;4828611;29;20045;-87
2022/01/23 09:05:43;;;;;;;0.10;0.10;;;;;;;;;;4828461;29;20124;-88
2022/01/23 09:08:09;;;;;;;0.10;0.10;;;;;;;;;;4828703;29;20471;-88
2022/01/23 09:10:52;;;;;;;0.43;0.17;;;;;;;;;;4828302;29;20094;-88
2022/01/23 09:13:52;;;;;;;0.10;0.10;;;;;;;;;;4828284;29;20057;-88
2022/01/23 09:16:18;;;;;;;0.10;0.10;;;;;;;;;;4828254;29;20094;-88
2022/01/23 09:18:44;;;;;;;0.10;0.10;;;;;;;;;;4828341;29;20042;-88
2022/01/23 09:21:10;;;;;;;0.10;0.10;;;;;;;;;;4828260;29;20570;-88
2022/01/23 09:23:36;;;;;;;0.10;0.10;;;;;;;;;;4828207;29;20147;-88
2022/01/23 09:26:08;;;;;;;0.10;0.10;;;;;;;;;;4828557;29;20086;-87
2022/01/23 09:28:34;;;;;;;0.10;0.10;;;;;;;;;;4828198;29;20045;-88
2022/01/23 09:31:00;;;;;;;0.10;0.10;;;;;;;;;;4843423;29;20072;-88
2022/01/23 09:33:27;;;;;;;0.10;0.10;;;;;;;;;;4828064;29;20045;-88
2022/01/23 09:35:53;;;;;;;0.10;0.10;;;;;;;;;;4828119;29;20041;-89
2022/01/23 09:38:19;;;;;;;0.10;0.10;;;;;;;;;;4828056;29;20375;-88
2022/01/23 09:40:45;;;;;;;0.10;0.10;;;;;;;;;;4843224;29;20057;-88
2022/01/23 09:43:20;;;;;;;0.10;0.10;;;;;;;;;;4843192;29;20065;-88
2022/01/23 09:45:46;;;;;;;0.10;0.10;;;;;;;;;;4842896;29;20573;-88
2022/01/23 09:48:12;;;;;;;0.10;0.10;;;;;;;;;;4829881;29;20085;-88
2022/01/23 09:50:38;;;;;;;0.10;0.10;;;;;;;;;;4831698;29;20048;-88
2022/01/23 09:53:04;;;;;;;0.10;0.10;;;;;;;;;;4831746;29;20045;-88
2022/01/23 09:55:31;;;;;;;0.10;0.10;;;;;;;;;;4831674;29;20084;-88
2022/01/23 09:57:57;;;;;;;0.10;0.10;;;;;;;;;;4846734;29;20490;-88
2022/01/23 10:00:24;;;;;;;0.10;0.10;;;;;;;;;;4831511;29;20096;-88
2022/01/23 10:02:50;;;;;;;0.10;0.10;;;;;;;;;;4831372;29;20077;-88
2022/01/23 10:05:16;;;;;;;0.10;0.10;;;;;;;;;;4831184;29;20056;-88
2022/01/23 10:07:42;;;;;;;0.10;0.10;;;;;;;;;;4831585;29;20046;-88
2022/01/23 10:10:16;;;;;;;0.25;0.25;;;;;;;;;;4831188;29;20045;-88
2022/01/23 10:12:43;;;;;;;0.10;0.10;;;;;;;;;;4831034;29;20080;-88
2022/01/23 10:15:09;;;;;;;0.10;0.10;;;;;;;;;;4831406;29;20056;-88
2022/01/23 10:17:36;;;;;;;0.10;0.10;;;;;;;;;;4831068;29;20045;-88
2022/01/23 10:20:02;;;;;;;0.10;0.10;;;;;;;;;;4831088;29;20041;-88
2022/01/23 10:22:29;;;;;;;0.10;0.10;;;;;;;;;;4830853;29;20045;-88
2022/01/23 10:25:03;;;;;;;0.10;0.10;;;;;;;;;;4831243;29;20046;-88
2022/01/23 10:27:29;;;;;;;0.10;0.10;;;;;;;;;;4831054;29;20112;-88
2022/01/23 10:29:56;;;;;;;0.10;0.10;;;;;;;;;;4846186;29;20091;-88
2022/01/23 10:32:23;;;;;;;0.10;0.10;;;;;;;;;;4830727;29;20052;-88
2022/01/23 10:34:50;;;;;;;0.10;0.10;;;;;;;;;;4831016;29;20422;-88
2022/01/23 10:37:25;;;;;;;0.10;0.10;;;;;;;;;;4830973;29;20161;-88
2022/01/23 10:39:51;;;;;;;0.10;0.10;;;;;;;;;;4846000;29;20132;-88
2022/01/23 10:42:48;;;;;;;0.10;0.10;;;;;;;;;;4830639;29;20037;-88
2022/01/23 10:48:25;;;;;;;0.10;0.10;;;;;;;;;;4833313;29;20140;-88
2022/01/23 10:50:52;;;;;;;0.10;0.10;;;;;;;;;;4845695;29;20438;-88
2022/01/23 10:53:18;;;;;;;0.10;0.10;;;;;;;;;;4830413;29;20481;-88
2022/01/23 10:55:45;;;;;;;0.10;0.10;;;;;;;;;;4830480;29;20042;-88
2022/01/23 10:58:21;;;;;;;0.10;0.10;;;;;;;;;;4830662;29;20037;-88
2022/01/23 11:00:46;;;;;;;0.10;0.10;;;;;;;;;;4829833;29;20101;-89
2022/01/23 11:03:19;;;;;;;0.10;0.10;;;;;;;;;;4830293;29;20045;-88
2022/01/23 11:05:46;;;;;;;0.10;0.10;;;;;;;;;;4845469;29;20101;-88
2022/01/23 11:08:25;;;;;;;0.10;0.10;;;;;;;;;;4830174;29;20050;-88
2022/01/23 11:10:58;;;;;;;0.10;0.10;;;;;;;;;;4830106;29;20220;-88
2022/01/23 11:19:23;;;;;;;0.10;0.10;;;;;;;;;;4832898;29;20490;-89
2022/01/23 11:21:52;;;;;;;0.10;0.10;;;;;;;;;;4829905;29;20287;-88
2022/01/23 11:24:18;;;;;;;0.10;0.10;;;;;;;;;;4829737;29;20041;-88
2022/01/23 11:26:44;;;;;;;0.10;0.10;;;;;;;;;;4830452;29;20462;-88
2022/01/23 11:29:10;;;;;;;0.10;0.10;;;;;;;;;;4830115;29;20097;-88
2022/01/23 11:31:38;;;;;;;0.10;0.10;;;;;;;;;;4845213;29;20045;-88
2022/01/23 11:34:05;;;;;;;0.10;0.10;;;;;;;;;;4845000;29;20515;-88
2022/01/23 11:36:31;;;;;;;0.10;0.10;;;;;;;;;;4829665;29;20087;-89
2022/01/23 11:39:06;;;;;;;0.10;0.10;;;;;;;;;;4829788;29;20461;-88
2022/01/23 11:55:32;;;;;;;0.10;0.10;;;;;;;;;;4841663;29;20045;-88
2022/01/23 11:57:59;;;;;;;0.10;0.10;;;;;;;;;;4844687;29;20051;-88
2022/01/23 12:00:32;;;;;;;0.10;0.10;;;;;;;;;;4829396;29;20081;-88
2022/01/23 12:03:17;;;;;;;0.10;0.10;;;;;;;;;;4829286;29;20056;-88
2022/01/23 12:05:47;;;;;;;0.10;0.10;;;;;;;;;;4844724;29;20490;-90
2022/01/23 12:08:34;;;;;;;0.10;0.10;;;;;;;;;;4829867;29;20042;-89
2022/01/23 12:11:38;;;;;;;0.10;0.10;;;;;;;;;;4844308;29;20572;-88
2022/01/23 12:17:05;;;;;;;0.10;0.10;;;;;;;;;;4825724;29;20509;-88
2022/01/23 12:19:32;;;;;;;0.10;0.10;;;;;;;;;;4844370;29;20079;-88
2022/01/23 12:21:59;;;;;;;0.10;0.10;;;;;;;;;;4829164;29;20081;-88
2022/01/23 12:24:25;;;;;;;0.10;0.10;;;;;;;;;;4829172;29;20394;-89
2022/01/23 12:26:52;;;;;;;0.10;0.10;;;;;;;;;;4828733;29;20462;-88
2022/01/23 12:29:23;;;;;;;0.10;0.10;;;;;;;;;;4844155;29;20398;-89
2022/01/23 12:31:49;;;;;;;0.10;0.10;;;;;;;;;;4843919;29;20085;-88
2022/01/23 12:34:15;;;;;;;0.10;0.10;;;;;;;;;;4829028;29;20056;-88
2022/01/23 12:36:41;;;;;;;0.10;0.10;;;;;;;;;;4829189;29;20098;-89
2022/01/23 12:39:07;;;;;;;0.10;0.10;;;;;;;;;;4828697;29;20140;-88
2022/01/23 12:41:36;;;;;;;0.10;0.10;;;;;;;;;;4828655;29;20501;-89
2022/01/23 12:44:05;;;;;;;0.10;0.10;;;;;;;;;;4843766;29;20132;-88
2022/01/23 12:46:35;;;;;;;0.10;0.10;;;;;;;;;;4843706;29;20110;-88
2022/01/23 12:49:20;;;;;;;0.10;0.10;;;;;;;;;;4828519;29;20060;-88
2022/01/23 12:51:47;;;;;;;0.10;0.10;;;;;;;;;;4843255;29;20050;-87
2022/01/23 12:54:15;;;;;;;0.10;0.10;;;;;;;;;;4828563;29;20053;-88
2022/01/23 12:56:43;;;;;;;0.10;0.10;;;;;;;;;;4828570;29;20505;-89
2022/01/23 12:59:12;;;;;;;0.10;0.10;;;;;;;;;;4843699;29;20105;-88
2022/01/23 13:01:39;;;;;;;0.10;0.10;;;;;;;;;;4828329;29;20497;-88
2022/01/23 13:04:06;;;;;;;0.10;0.10;;;;;;;;;;4828237;29;20045;-88
2022/01/23 13:06:33;;;;;;;0.10;0.10;;;;;;;;;;4843757;29;20394;-88
2022/01/23 13:09:25;;;;;;;0.10;0.10;;;;;;;;;;4843392;29;20041;-88
2022/01/23 13:11:56;;;;;;;0.10;0.10;;;;;;;;;;4828322;29;20056;-88
2022/01/23 13:14:27;;;;;;;0.10;0.10;;;;;;;;;;4843387;29;20506;-88
2022/01/23 13:17:28;;;;;;;0.10;0.10;;;;;;;;;;4843369;29;20041;-88
2022/01/23 13:31:05;;;;;;;0.10;0.10;;;;;;;;;;4842873;29;20486;-89
2022/01/23 13:33:31;;;;;;;0.10;0.10;;;;;;;;;;4843044;29;20458;-88
2022/01/23 13:36:00;;;;;;;0.10;0.10;;;;;;;;;;4827973;29;20041;-88
2022/01/23 13:38:32;;;;;;;0.10;0.10;;;;;;;;;;4817259;29;20073;-88
2022/01/23 13:41:05;;;;;;;0.10;0.10;;;;;;;;;;4810380;29;20502;-88
2022/01/23 13:50:19;;;;;;;0.10;0.10;;;;;;;;;;4811834;29;20459;-88
2022/01/23 13:52:25;;;;;;;0.10;0.10;;;;;;;;;;4813986;29;20053;-88
2022/01/23 13:58:03;;;;;;;0.10;0.10;;;;;;;;;;4811799;29;20054;-89
2022/01/23 14:00:29;;;;;;;0.10;0.10;;;;;;;;;;4811899;29;20170;-89
2022/01/23 14:02:55;;;;;;;0.10;0.10;;;;;;;;;;4809318;29;20082;-88
2022/01/23 14:05:22;;;;;;;0.10;0.10;;;;;;;;;;4809485;29;20381;-88
2022/01/23 14:07:55;;;;;;;0.10;0.10;;;;;;;;;;4809588;29;20060;-89
2022/01/23 14:10:25;;;;;;;0.10;0.10;;;;;;;;;;4809334;29;20105;-88
2022/01/23 14:12:52;;;;;;;0.10;0.10;;;;;;;;;;4809495;29;20050;-88
2022/01/23 14:15:22;;;;;;;0.10;0.10;;;;;;;;;;4809822;29;20050;-89
2022/01/23 14:17:57;;;;;;;0.10;0.10;;;;;;;;;;4809754;29;20038;-88
2022/01/23 14:20:23;;;;;;;0.10;0.10;;;;;;;;;;4824338;29;20052;-88
2022/01/23 14:22:49;;;;;;;0.10;0.10;;;;;;;;;;4809570;29;20493;-88
2022/01/23 14:25:16;;;;;;;0.10;0.10;;;;;;;;;;4809570;29;20046;-88
2022/01/23 14:27:47;;;;;;;0.10;0.10;;;;;;;;;;4809436;29;20050;-88
2022/01/23 14:30:15;;;;;;;0.10;0.10;;;;;;;;;;4809215;29;20053;-88
2022/01/23 14:32:46;;;;;;;0.10;0.10;;;;;;;;;;4809323;29;20042;-88
2022/01/23 14:35:12;;;;;;;0.10;0.10;;;;;;;;;;4813096;29;20092;-88
2022/01/23 14:37:38;;;;;;;0.10;0.10;;;;;;;;;;4831820;29;20122;-88
2022/01/23 14:40:30;;;;;;;0.10;0.10;;;;;;;;;;4830721;29;20498;-88
2022/01/23 14:43:00;;;;;;;0.10;0.10;;;;;;;;;;4859778;29;20069;-89
2022/01/23 14:45:27;;;;;;;0.10;0.10;;;;;;;;;;4830929;29;20045;-88
2022/01/23 14:47:53;;;;;;;0.10;0.10;;;;;;;;;;4830428;29;20049;-89
2022/01/23 14:50:20;;;;;;;0.10;0.10;;;;;;;;;;4830760;29;20046;-88
2022/01/23 14:52:48;;;;;;;0.10;0.10;;;;;;;;;;4830183;29;20439;-88
2022/01/23 14:55:14;;;;;;;0.10;0.10;;;;;;;;;;4830331;29;20525;-89
2022/01/23 14:57:40;;;;;;;0.10;0.10;;;;;;;;;;4830717;29;20045;-88
2022/01/23 15:00:06;;;;;;;0.10;0.10;;;;;;;;;;4830198;29;20045;-88
2022/01/23 15:02:32;;;;;;;0.10;0.10;;;;;;;;;;4830455;29;20046;-89
2022/01/23 15:05:02;;;;;;;0.10;0.10;;;;;;;;;;4830214;29;20149;-89
2022/01/23 15:07:32;;;;;;;0.10;0.10;;;;;;;;;;4830080;29;20037;-89
2022/01/23 15:09:58;;;;;;;0.10;0.10;;;;;;;;;;4830246;29;20049;-89
2022/01/23 15:12:24;;;;;;;0.10;0.10;;;;;;;;;;4845395;29;20041;-88
2022/01/23 15:14:50;;;;;;;0.10;0.10;;;;;;;;;;4830219;29;20136;-88
2022/01/23 15:17:18;;;;;;;0.10;0.10;;;;;;;;;;4845340;29;20208;-88
2022/01/23 15:19:44;;;;;;;0.10;0.10;;;;;;;;;;4829879;29;20509;-88
2022/01/23 15:22:10;;;;;;;0.10;0.10;;;;;;;;;;4829911;29;20041;-88
2022/01/23 15:24:36;;;;;;;0.10;0.10;;;;;;;;;;4845367;29;20049;-88
2022/01/23 15:27:02;;;;;;;0.10;0.10;;;;;;;;;;4845127;29;20093;-88
2022/01/23 15:29:28;;;;;;;0.10;0.10;;;;;;;;;;4829984;29;20052;-88
2022/01/23 15:31:54;;;;;;;0.10;0.10;;;;;;;;;;4829984;29;20136;-88
2022/01/23 15:34:20;;;;;;;0.10;0.10;;;;;;;;;;4829700;29;20073;-88
2022/01/23 15:36:46;;;;;;;0.10;0.10;;;;;;;;;;4844950;29;20081;-88
2022/01/23 15:39:12;;;;;;;0.10;0.10;;;;;;;;;;4829694;29;20104;-87
2022/01/23 15:41:38;;;;;;;0.10;0.10;;;;;;;;;;4829639;29;20049;-89
2022/01/23 15:44:05;;;;;;;0.10;0.10;;;;;;;;;;4829509;29;20132;-87
2022/01/23 15:46:31;;;;;;;0.10;0.10;;;;;;;;;;4844091;29;20101;-87
2022/01/23 15:48:57;;;;;;;0.10;0.10;;;;;;;;;;4829639;29;20049;-86
2022/01/23 15:51:22;;;;;;;0.10;0.10;;;;;;;;;;4829545;29;20550;-86
2022/01/23 15:53:48;;;;;;;0.10;0.10;;;;;;;;;;4844644;29;20430;-86
2022/01/23 15:56:14;;;;;;;0.10;0.10;;;;;;;;;;4829311;29;20520;-85
2022/01/23 15:58:40;;;;;;;0.10;0.10;;;;;;;;;;4829630;29;20132;-89
2022/01/23 16:01:06;;;;;;;0.10;0.10;;;;;;;;;;4829408;29;20050;-89
2022/01/23 16:03:33;;;;;;;0.10;0.10;;;;;;;;;;4829213;29;20128;-87
2022/01/23 16:06:01;;;;;;;0.10;0.10;;;;;;;;;;4844341;29;20045;-87
2022/01/23 16:08:27;;;;;;;0.10;0.10;;;;;;;;;;4844613;29;20049;-87
2022/01/23 16:10:53;;;;;;;0.10;0.10;;;;;;;;;;4829145;29;20467;-87
2022/01/23 16:13:19;;;;;;;0.10;0.10;;;;;;;;;;4828969;29;20051;-87
2022/01/23 16:15:45;;;;;;;0.10;0.10;;;;;;;;;;4829021;29;20044;-86
2022/01/23 16:18:12;;;;;;;0.10;0.10;;;;;;;;;;4829262;29;20084;-87
2022/01/23 16:20:38;;;;;;;0.10;0.10;;;;;;;;;;4828780;29;20046;-87
2022/01/23 16:23:04;;;;;;;0.10;0.10;;;;;;;;;;4828673;29;20042;-88
2022/01/23 16:25:30;;;;;;;0.10;0.10;;;;;;;;;;4828609;29;20071;-88
2022/01/23 16:27:56;;;;;;;0.10;0.10;;;;;;;;;;4828721;29;20261;-88
2022/01/23 16:30:23;;;;;;;0.10;0.10;;;;;;;;;;4828764;29;20052;-87
2022/01/23 16:32:49;;;;;;;0.10;0.10;;;;;;;;;;4844229;29;20052;-88
2022/01/23 16:35:19;;;;;;;0.10;0.10;;;;;;;;;;4828766;29;20048;-88
2022/01/23 16:37:45;;;;;;;0.10;0.10;;;;;;;;;;4843657;29;20069;-88
2022/01/23 16:40:11;;;;;;;0.10;0.10;;;;;;;;;;4843721;29;20078;-87
2022/01/23 16:42:37;;;;;;;0.10;0.10;;;;;;;;;;4828784;29;20041;-89
2022/01/23 16:45:04;;;;;;;0.10;0.10;;;;;;;;;;4828272;29;20128;-86
2022/01/23 16:47:30;;;;;;;0.10;0.10;;;;;;;;;;4843602;29;20045;-87
2022/01/23 16:49:56;;;;;;;0.10;0.10;;;;;;;;;;4828548;29;20041;-87
2022/01/23 16:52:22;;;;;;;0.10;0.10;;;;;;;;;;4828442;29;20049;-86
2022/01/23 16:54:48;;;;;;;0.10;0.10;;;;;;;;;;4828619;29;20076;-86
2022/01/23 16:57:14;;;;;;;0.10;0.10;;;;;;;;;;4827490;29;20088;-87
2022/01/23 16:59:41;;;;;;;0.10;0.10;;;;;;;;;;4828099;29;20123;-86
2022/01/23 17:02:07;;;;;;;0.10;0.10;;;;;;;;;;4828266;29;20041;-87
2022/01/23 17:04:34;;;;;;;0.10;0.10;;;;;;;;;;4843421;29;20089;-87
2022/01/23 17:07:00;;;;;;;0.10;0.10;;;;;;;;;;4828211;29;20053;-86
2022/01/23 17:09:30;;;;;;;0.10;0.10;;;;;;;;;;4843683;29;20394;-86
2022/01/23 17:11:56;;;;;;;0.10;0.10;;;;;;;;;;4828087;29;20056;-87
2022/01/23 17:14:22;;;;;;;0.10;0.10;;;;;;;;;;4828279;29;20446;-87
2022/01/23 17:16:48;;;;;;;0.10;0.10;;;;;;;;;;4828210;29;20041;-87
2022/01/23 17:19:14;;;;;;;0.10;0.10;;;;;;;;;;4828057;29;20501;-88
2022/01/23 17:21:40;;;;;;;0.10;0.10;;;;;;;;;;4842976;29;20131;-87
2022/01/23 17:24:06;;;;;;;0.10;0.10;;;;;;;;;;4842881;29;20498;-87
2022/01/23 17:26:33;;;;;;;0.10;0.10;;;;;;;;;;4827921;29;20081;-87
2022/01/23 17:28:59;;;;;;;0.10;0.10;;;;;;;;;;4827733;29;20049;-88
2022/01/23 17:31:25;;;;;;;0.10;0.10;;;;;;;;;;4827728;29;20045;-85
2022/01/23 17:33:51;;;;;;;0.10;0.10;;;;;;;;;;4842740;29;20045;-85
2022/01/23 17:36:17;;;;;;;0.10;0.10;;;;;;;;;;4827776;29;20102;-85
2022/01/23 17:38:43;;;;;;;0.10;0.10;;;;;;;;;;4842854;29;20081;-86
2022/01/23 17:41:12;;;;;;;0.10;0.10;;;;;;;;;;4842820;29;20084;-86
2022/01/23 17:43:38;;;;;;;0.10;0.10;;;;;;;;;;4827764;29;20136;-87
2022/01/23 17:46:06;;;;;;;0.10;0.10;;;;;;;;;;4827915;29;20084;-87
2022/01/23 17:48:50;;;;;;;0.10;0.10;;;;;;;;;;4827868;29;20046;-87
2022/01/23 17:51:16;;;;;;;0.10;0.10;;;;;;;;;;4827409;29;20088;-86
2022/01/23 17:53:43;;;;;;;0.10;0.10;;;;;;;;;;4842985;29;20435;-87